Time;durP1;ratioP1;P1;durP2;ratioP2;P2;SDS_P1;SDS_P2;PMS_P1;PMS_P2;Temp;Humidity;BMP_temperature;BMP_pressure;BME280_temperature;BME280_humidity;BME280_pressure;Samples;Min_cycle;Max_cycle;Signal;HPM_P1;HPM_P2
2022/06/06 00:01:56;;;;;;;5.82;2.70;;;15.60;99.90;;;;;;5028934;28;20032;-76
2022/06/06 00:04:23;;;;;;;8.68;4.03;;;15.50;99.90;;;;;;5025342;28;20475;-76
2022/06/06 00:06:51;;;;;;;7.13;3.15;;;15.50;99.90;;;;;;5025180;28;20120;-76
2022/06/06 00:09:22;;;;;;;6.35;2.80;;;15.40;99.90;;;;;;5022834;28;20018;-77
2022/06/06 00:11:54;;;;;;;5.78;3.10;;;15.40;99.90;;;;;;5023362;28;20033;-76
2022/06/06 00:14:26;;;;;;;7.32;2.70;;;15.40;99.90;;;;;;5024170;28;20447;-76
2022/06/06 00:16:53;;;;;;;4.63;2.50;;;15.40;99.90;;;;;;5026691;28;20121;-77
2022/06/06 00:19:18;;;;;;;6.10;2.78;;;15.40;99.90;;;;;;5017969;28;20026;-76
2022/06/06 00:21:44;;;;;;;5.15;2.50;;;15.30;99.90;;;;;;5029638;28;20068;-76
2022/06/06 00:24:11;;;;;;;3.40;2.40;;;15.30;99.90;;;;;;5023976;28;20033;-77
2022/06/06 00:26:42;;;;;;;5.18;2.80;;;15.30;99.90;;;;;;5025179;28;20032;-77
2022/06/06 00:29:09;;;;;;;7.63;2.92;;;15.30;99.90;;;;;;5027125;28;20044;-77
2022/06/06 00:37:12;;;;;;;6.35;2.40;;;15.10;99.90;;;;;;5025095;28;20037;-77
2022/06/06 00:39:39;;;;;;;4.60;2.30;;;15.00;99.90;;;;;;5021460;28;20128;-75
2022/06/06 00:42:31;;;;;;;3.78;2.38;;;15.00;99.90;;;;;;5020385;28;20053;-75
2022/06/06 00:45:29;;;;;;;4.07;2.88;;;15.00;99.90;;;;;;5026180;28;20089;-75
2022/06/06 00:48:06;;;;;;;6.15;2.55;;;15.00;99.90;;;;;;5013402;28;20040;-75
2022/06/06 00:50:46;;;;;;;4.45;2.90;;;15.00;99.90;;;;;;5039572;28;20025;-76
2022/06/06 00:53:20;;;;;;;6.30;3.15;;;14.90;99.90;;;;;;5023164;28;20026;-75
2022/06/06 00:55:53;;;;;;;4.88;2.90;;;14.90;99.90;;;;;;5026147;28;20083;-75
2022/06/06 00:58:24;;;;;;;4.43;2.90;;;14.90;99.90;;;;;;5029278;28;20025;-75
2022/06/06 01:00:51;;;;;;;3.50;2.45;;;14.90;99.90;;;;;;5026429;28;20022;-74
2022/06/06 01:03:20;;;;;;;5.28;2.50;;;14.90;99.90;;;;;;5025349;28;20029;-75
2022/06/06 01:05:47;;;;;;;5.03;2.65;;;14.90;99.90;;;;;;5027515;28;20075;-74
2022/06/06 01:08:15;;;;;;;4.78;2.90;;;14.90;99.90;;;;;;5027832;28;20470;-75
2022/06/06 01:10:44;;;;;;;7.75;2.88;;;14.90;99.90;;;;;;5023369;28;20029;-75
2022/06/06 01:13:13;;;;;;;5.18;3.08;;;14.80;99.90;;;;;;5027876;28;20021;-74
2022/06/06 01:16:02;;;;;;;5.55;2.90;;;14.80;99.90;;;;;;5023770;28;20037;-74
2022/06/06 01:18:39;;;;;;;8.00;3.45;;;14.70;99.90;;;;;;5022794;28;20462;-74
2022/06/06 01:21:18;;;;;;;6.18;2.92;;;14.80;99.90;;;;;;5021722;28;20060;-74
2022/06/06 01:24:02;;;;;;;4.25;2.55;;;14.70;99.90;;;;;;5022047;28;20043;-74
2022/06/06 01:26:39;;;;;;;;;;;14.70;99.90;;;;;;5028105;28;20029;-75
2022/06/06 01:29:14;;;;;;;9.30;2.90;;;14.60;99.90;;;;;;5023133;28;19913;-74
2022/06/06 01:31:44;;;;;;;4.57;3.10;;;14.50;99.90;;;;;;5020226;28;20497;-75
2022/06/06 01:34:13;;;;;;;13.85;3.20;;;14.50;99.90;;;;;;5022619;28;20187;-75
2022/06/06 01:36:50;;;;;;;4.20;3.10;;;14.50;99.90;;;;;;5026608;28;20033;-74
2022/06/06 01:39:25;;;;;;;4.97;3.30;;;14.50;99.90;;;;;;5024070;28;20047;-74
2022/06/06 01:42:18;;;;;;;7.90;2.90;;;14.40;99.90;;;;;;5022840;28;20029;-74
2022/06/06 01:45:19;;;;;;;4.35;2.97;;;14.50;99.90;;;;;;5027205;28;20483;-75
2022/06/06 01:48:02;;;;;;;5.35;3.25;;;14.50;99.90;;;;;;5019442;28;20052;-75
2022/06/06 01:50:30;;;;;;;5.45;2.80;;;14.50;99.90;;;;;;5024592;28;20038;-75
2022/06/06 01:53:06;;;;;;;5.20;3.28;;;14.50;99.90;;;;;;5019279;28;20040;-75
2022/06/06 01:55:37;;;;;;;5.80;3.03;;;14.50;99.90;;;;;;5023661;28;20624;-74
2022/06/06 01:58:06;;;;;;;3.53;2.80;;;14.40;99.90;;;;;;5027606;28;20025;-74
2022/06/06 02:00:34;;;;;;;6.88;3.10;;;14.40;99.90;;;;;;5022309;28;20049;-74
2022/06/06 02:03:09;;;;;;;4.72;2.92;;;14.30;99.90;;;;;;5023571;28;20064;-74
2022/06/06 02:05:35;;;;;;;6.70;2.97;;;14.40;99.90;;;;;;5041637;28;20030;-74
2022/06/06 02:08:01;;;;;;;6.70;3.42;;;14.30;99.90;;;;;;5023484;28;20040;-74
2022/06/06 02:10:27;;;;;;;9.35;3.42;;;14.40;99.90;;;;;;5023709;28;20033;-74
2022/06/06 02:12:53;;;;;;;3.45;2.65;;;14.30;99.90;;;;;;5021967;28;20029;-74
2022/06/06 02:15:25;;;;;;;5.75;2.70;;;14.30;99.90;;;;;;5025061;28;20191;-74
2022/06/06 02:17:52;;;;;;;8.70;3.28;;;14.30;99.90;;;;;;5028522;28;20028;-74
2022/06/06 02:20:21;;;;;;;5.35;2.65;;;14.30;99.90;;;;;;5028142;28;20025;-74
2022/06/06 02:22:49;;;;;;;5.80;3.05;;;14.30;99.90;;;;;;5024548;28;20034;-75
2022/06/06 02:25:18;;;;;;;3.95;2.63;;;14.30;99.90;;;;;;5028030;28;20025;-74
2022/06/06 02:27:44;;;;;;;4.57;2.83;;;14.20;99.90;;;;;;5027108;28;20037;-74
2022/06/06 02:30:19;;;;;;;5.32;3.35;;;14.20;99.90;;;;;;5024033;28;20021;-75
2022/06/06 02:32:54;;;;;;;4.90;3.08;;;14.20;99.90;;;;;;5027708;28;20044;-74
2022/06/06 02:35:23;;;;;;;5.20;2.72;;;14.20;99.90;;;;;;5029074;28;20037;-74
2022/06/06 02:37:50;;;;;;;6.32;3.00;;;14.20;99.90;;;;;;5029122;28;20029;-74
2022/06/06 02:40:18;;;;;;;4.38;3.10;;;14.20;99.90;;;;;;5027087;28;20030;-74
2022/06/06 02:42:48;;;;;;;7.57;3.05;;;14.20;99.90;;;;;;5030633;28;20045;-74
2022/06/06 02:45:15;;;;;;;5.10;3.08;;;14.20;99.90;;;;;;5043666;28;20025;-74
2022/06/06 02:47:44;;;;;;;5.43;3.00;;;14.20;99.90;;;;;;5028392;28;20498;-75
2022/06/06 02:50:16;;;;;;;5.38;3.40;;;14.20;99.90;;;;;;5029269;28;20534;-75
2022/06/06 02:52:43;;;;;;;6.15;3.25;;;14.20;99.90;;;;;;5029408;28;20436;-75
2022/06/06 02:55:16;;;;;;;12.70;3.60;;;14.20;99.90;;;;;;5033354;28;20029;-75
2022/06/06 02:57:46;;;;;;;7.50;3.50;;;14.20;99.90;;;;;;5033324;28;20022;-75
2022/06/06 03:00:16;;;;;;;4.53;3.38;;;14.20;99.90;;;;;;5031195;28;20037;-75
2022/06/06 03:02:45;;;;;;;4.13;3.30;;;14.10;99.90;;;;;;5027554;28;20394;-75
2022/06/06 03:05:11;;;;;;;5.07;3.10;;;14.00;99.90;;;;;;5025822;28;20504;-75
2022/06/06 03:08:05;;;;;;;5.13;2.88;;;14.00;99.90;;;;;;5026880;28;20021;-75
2022/06/06 03:10:59;;;;;;;6.40;3.15;;;14.00;99.90;;;;;;5028538;28;20485;-75
2022/06/06 03:13:39;;;;;;;6.70;3.55;;;14.00;99.90;;;;;;5032073;28;20044;-75
2022/06/06 03:22:54;;;;;;;5.40;3.55;;;14.00;99.90;;;;;;5027213;28;20048;-75
2022/06/06 03:25:43;;;;;;;4.45;3.25;;;14.00;99.90;;;;;;5027724;28;20017;-75
2022/06/06 03:28:22;;;;;;;5.53;3.25;;;14.00;99.90;;;;;;5026547;28;20526;-75
2022/06/06 03:31:23;;;;;;;5.35;3.03;;;14.00;99.90;;;;;;5025146;28;20729;-75
2022/06/06 03:34:27;;;;;;;5.72;3.75;;;14.00;99.90;;;;;;5026917;28;20060;-75
2022/06/06 03:37:21;;;;;;;4.00;3.17;;;14.00;99.90;;;;;;5026419;28;20037;-74
2022/06/06 03:40:12;;;;;;;6.20;3.70;;;14.00;99.90;;;;;;5025533;28;20064;-74
2022/06/06 03:42:44;;;;;;;5.63;3.80;;;14.00;99.90;;;;;;5023528;28;20032;-75
2022/06/06 03:45:51;;;;;;;6.22;3.35;;;14.00;99.90;;;;;;5024131;28;20106;-75
2022/06/06 03:48:50;;;;;;;5.88;3.50;;;14.00;99.90;;;;;;5018688;28;20111;-75
2022/06/06 03:51:48;;;;;;;5.95;3.10;;;14.00;99.90;;;;;;5024101;28;20021;-74
2022/06/06 03:54:35;;;;;;;8.32;3.42;;;14.00;99.90;;;;;;5024455;28;20029;-75
2022/06/06 03:57:19;;;;;;;5.50;4.07;;;14.00;99.90;;;;;;5047624;28;20036;-75
2022/06/06 03:59:53;;;;;;;4.80;3.70;;;14.00;99.90;;;;;;5023315;28;20048;-74
2022/06/06 04:02:20;;;;;;;;;;;14.00;99.90;;;;;;5023275;28;20033;-75
2022/06/06 04:04:53;;;;;;;4.93;3.50;;;14.00;99.90;;;;;;5027859;28;20350;-75
2022/06/06 04:07:21;;;;;;;7.10;3.53;;;14.00;99.90;;;;;;5025159;28;20052;-75
2022/06/06 04:09:47;;;;;;;5.30;3.80;;;14.10;99.90;;;;;;5027789;28;20124;-75
2022/06/06 04:12:35;;;;;;;5.13;3.65;;;14.20;99.90;;;;;;5026089;28;20494;-75
2022/06/06 04:15:03;;;;;;;5.40;3.53;;;14.30;99.90;;;;;;5022077;28;20045;-74
2022/06/06 04:17:51;;;;;;;6.35;3.85;;;14.40;99.90;;;;;;5020206;28;20029;-75
2022/06/06 04:20:30;;;;;;;8.93;3.35;;;14.60;99.90;;;;;;5029445;28;20041;-75
2022/06/06 04:23:11;;;;;;;5.97;3.53;;;14.70;99.90;;;;;;5023976;28;20025;-75
2022/06/06 04:25:54;;;;;;;4.60;3.47;;;14.80;99.90;;;;;;5024288;28;20212;-75
2022/06/06 04:28:52;;;;;;;5.95;3.58;;;14.80;99.90;;;;;;5026570;28;20084;-75
2022/06/06 04:31:27;;;;;;;5.28;3.60;;;14.80;99.90;;;;;;5040296;28;20025;-75
2022/06/06 04:34:09;;;;;;;9.05;3.80;;;14.80;99.90;;;;;;5028336;28;20048;-75
2022/06/06 04:36:44;;;;;;;5.03;3.72;;;14.80;99.90;;;;;;5025817;28;20018;-75
2022/06/06 04:39:41;;;;;;;5.30;3.92;;;14.90;99.90;;;;;;5026275;28;20018;-75
2022/06/06 04:42:48;;;;;;;10.75;4.40;;;15.10;99.90;;;;;;5021421;28;20406;-75
2022/06/06 04:45:42;;;;;;;7.15;3.83;;;15.20;99.90;;;;;;5024759;28;20156;-74
2022/06/06 04:48:09;;;;;;;6.45;3.90;;;15.40;99.90;;;;;;5026296;28;20017;-75
2022/06/06 04:50:40;;;;;;;8.13;4.47;;;15.60;99.90;;;;;;5026541;28;20041;-75
2022/06/06 04:53:14;;;;;;;9.25;4.47;;;15.70;99.90;;;;;;5027866;28;20461;-75
2022/06/06 04:55:58;;;;;;;;;;;15.80;99.90;;;;;;5028571;28;20044;-75
2022/06/06 04:58:28;;;;;;;7.85;4.00;;;15.90;99.90;;;;;;5027735;28;19915;-75
2022/06/06 05:00:54;;;;;;;9.13;4.55;;;15.90;99.90;;;;;;5035854;28;20029;-76
2022/06/06 05:03:20;;;;;;;6.00;4.10;;;15.80;99.90;;;;;;5029139;28;20025;-76
2022/06/06 05:06:16;;;;;;;7.35;4.30;;;15.80;99.90;;;;;;5025761;28;20060;-77
2022/06/06 05:09:03;;;;;;;7.03;4.07;;;15.80;99.90;;;;;;5024462;28;20437;-74
2022/06/06 05:11:50;;;;;;;6.60;4.07;;;15.80;99.90;;;;;;5023964;28;20461;-75
2022/06/06 05:14:31;;;;;;;5.85;4.18;;;15.90;99.90;;;;;;5025615;28;20087;-74
2022/06/06 05:17:06;;;;;;;6.45;4.10;;;16.10;99.90;;;;;;5042044;28;20034;-75
2022/06/06 05:20:18;;;;;;;6.72;3.88;;;16.20;99.90;;;;;;5025641;28;20057;-74
2022/06/06 05:22:52;;;;;;;5.35;3.88;;;16.30;99.90;;;;;;5047892;28;20024;-74
2022/06/06 05:25:37;;;;;;;7.43;3.35;;;16.50;99.90;;;;;;5030476;28;20025;-76
2022/06/06 05:28:21;;;;;;;;;;;16.50;99.90;;;;;;5025350;28;20080;-75
2022/06/06 05:30:57;;;;;;;5.77;3.77;;;16.60;99.90;;;;;;5020709;28;19924;-76
2022/06/06 05:33:35;;;;;;;5.82;3.40;;;16.80;99.90;;;;;;5025550;28;20278;-76
2022/06/06 05:36:09;;;;;;;4.05;3.28;;;16.90;99.90;;;;;;5026434;28;20013;-76
2022/06/06 05:39:00;;;;;;;4.75;3.25;;;17.00;99.90;;;;;;5025001;28;20033;-76
2022/06/06 05:42:03;;;;;;;3.42;2.55;;;17.30;99.90;;;;;;5022543;28;20026;-76
2022/06/06 05:44:33;;;;;;;5.65;3.20;;;17.50;99.90;;;;;;5047849;28;20035;-76
2022/06/06 05:47:10;;;;;;;7.35;3.33;;;17.80;99.90;;;;;;5022730;28;20030;-75
2022/06/06 05:50:12;;;;;;;4.70;2.63;;;18.00;99.90;;;;;;5024346;28;20021;-76
2022/06/06 05:53:23;;;;;;;4.60;2.80;;;18.10;99.90;;;;;;5030493;28;20490;-76
2022/06/06 05:56:13;;;;;;;5.28;2.60;;;18.30;99.90;;;;;;5021316;28;20046;-76
2022/06/06 05:59:03;;;;;;;3.35;2.67;;;18.40;99.90;;;;;;5044504;28;20040;-77
2022/06/06 06:01:59;;;;;;;7.65;2.78;;;18.60;99.90;;;;;;5047217;28;20049;-76
2022/06/06 06:04:56;;;;;;;3.58;2.45;;;18.60;99.90;;;;;;5031083;28;20040;-76
2022/06/06 06:07:48;;;;;;;4.75;2.90;;;18.50;99.90;;;;;;5028947;28;20029;-76
2022/06/06 06:10:51;;;;;;;4.75;2.72;;;18.60;99.90;;;;;;5027396;28;20112;-76
2022/06/06 06:13:46;;;;;;;3.90;2.28;;;18.90;99.90;;;;;;5030846;28;20490;-76
2022/06/06 06:16:17;;;;;;;5.95;3.00;;;19.00;99.90;;;;;;5026569;28;20040;-76
2022/06/06 06:18:59;;;;;;;3.72;2.53;;;19.10;99.90;;;;;;5028419;28;20596;-75
2022/06/06 06:21:29;;;;;;;4.22;2.67;;;19.30;99.90;;;;;;5025592;28;20406;-75
2022/06/06 06:24:10;;;;;;;3.40;2.90;;;19.50;99.90;;;;;;5029195;28;20021;-76
2022/06/06 06:26:39;;;;;;;4.90;2.63;;;19.60;99.90;;;;;;5026059;28;20044;-75
2022/06/06 06:29:08;;;;;;;6.03;2.60;;;19.60;99.90;;;;;;5029443;28;20029;-76
2022/06/06 06:32:07;;;;;;;6.05;3.13;;;19.70;99.90;;;;;;5030244;28;20037;-76
2022/06/06 06:34:45;;;;;;;5.03;2.67;;;19.90;99.90;;;;;;5029897;28;20034;-76
2022/06/06 06:37:59;;;;;;;5.80;3.10;;;20.00;99.90;;;;;;5028618;28;20026;-76
2022/06/06 06:40:46;;;;;;;4.80;2.95;;;20.00;99.90;;;;;;5044381;28;20043;-76
2022/06/06 06:43:23;;;;;;;7.65;3.20;;;20.20;99.90;;;;;;5030278;28;20148;-76
2022/06/06 06:46:33;;;;;;;3.30;2.75;;;20.30;99.90;;;;;;5024341;28;20029;-75
2022/06/06 06:49:34;;;;;;;4.22;2.80;;;20.40;99.90;;;;;;5029252;28;20037;-76
2022/06/06 06:52:21;;;;;;;4.25;2.78;;;20.50;99.90;;;;;;5028783;28;20041;-77
2022/06/06 06:55:05;;;;;;;9.05;2.40;;;20.50;99.90;;;;;;5027761;28;20033;-77
2022/06/06 06:57:49;;;;;;;7.40;2.60;;;20.60;99.90;;;;;;5029413;28;20105;-77
2022/06/06 07:00:47;;;;;;;4.65;3.13;;;20.90;99.90;;;;;;5024273;28;20037;-77
2022/06/06 07:09:47;;;;;;;4.73;2.57;;;21.30;99.90;;;;;;5028523;28;20033;-76
2022/06/06 07:12:44;;;;;;;4.28;2.63;;;21.40;99.90;;;;;;5030968;28;20365;-75
2022/06/06 07:15:46;;;;;;;4.18;2.70;;;21.50;99.90;;;;;;5028620;28;20029;-76
2022/06/06 07:18:17;;;;;;;3.75;2.85;;;21.50;99.90;;;;;;5030996;28;20074;-77
2022/06/06 07:20:47;;;;;;;5.55;2.05;;;21.60;99.90;;;;;;5029114;28;20386;-76
2022/06/06 07:23:15;;;;;;;4.78;2.55;;;21.60;99.90;;;;;;5029438;28;20037;-76
2022/06/06 07:25:44;;;;;;;5.07;2.88;;;21.60;99.90;;;;;;5032947;28;20087;-76
2022/06/06 07:28:22;;;;;;;7.40;2.92;;;21.60;99.90;;;;;;5034935;28;20033;-78
2022/06/06 07:31:09;;;;;;;3.63;2.50;;;21.50;99.90;;;;;;5027081;28;20026;-72
2022/06/06 07:33:50;;;;;;;4.57;2.85;;;21.50;99.90;;;;;;5027035;28;20048;-73
2022/06/06 07:36:24;;;;;;;4.18;2.83;;;21.50;99.90;;;;;;5023820;28;20478;-76
2022/06/06 07:39:20;;;;;;;4.53;2.70;;;21.40;99.90;;;;;;5019324;28;20032;-73
2022/06/06 07:42:30;;;;;;;4.80;2.60;;;21.60;99.90;;;;;;5028630;28;20067;-76
2022/06/06 07:45:15;;;;;;;5.15;2.78;;;21.60;99.90;;;;;;5025029;28;20163;-77
2022/06/06 07:48:08;;;;;;;7.15;2.65;;;21.70;99.90;;;;;;5042882;28;20100;-76
2022/06/06 07:50:46;;;;;;;4.45;2.53;;;21.80;99.90;;;;;;5024448;28;20029;-77
2022/06/06 07:53:53;;;;;;;3.20;2.30;;;21.90;99.90;;;;;;5041079;28;20045;-76
2022/06/06 07:56:27;;;;;;;3.08;2.30;;;21.90;99.90;;;;;;5029697;28;20045;-73
2022/06/06 07:59:22;;;;;;;3.42;2.35;;;22.00;99.90;;;;;;5026981;28;20092;-77
2022/06/06 08:02:04;;;;;;;5.07;2.45;;;22.00;99.90;;;;;;5028411;28;20563;-77
2022/06/06 08:04:50;;;;;;;4.40;1.98;;;22.10;99.90;;;;;;5047340;28;20049;-74
2022/06/06 08:07:30;;;;;;;3.40;2.13;;;22.10;99.90;;;;;;5029533;28;20021;-77
2022/06/06 08:10:03;;;;;;;2.78;2.42;;;22.00;99.90;;;;;;5029811;28;20029;-77
2022/06/06 08:12:45;;;;;;;2.70;2.20;;;22.00;99.90;;;;;;5029944;28;20034;-76
2022/06/06 08:15:29;;;;;;;3.13;1.95;;;22.10;99.90;;;;;;5025720;28;20036;-76
2022/06/06 08:18:17;;;;;;;3.47;2.20;;;22.10;99.90;;;;;;5032704;28;20065;-77
2022/06/06 08:20:50;;;;;;;4.63;2.22;;;22.10;99.90;;;;;;5028491;28;20427;-77
2022/06/06 08:23:18;;;;;;;4.95;2.92;;;22.10;99.90;;;;;;5027040;28;20049;-75
2022/06/06 08:25:46;;;;;;;4.75;3.00;;;22.10;99.90;;;;;;5027734;28;20038;-74
2022/06/06 08:28:13;;;;;;;2.78;2.25;;;22.10;99.90;;;;;;5031285;28;20034;-75
2022/06/06 08:30:41;;;;;;;3.28;1.98;;;22.10;99.90;;;;;;5028295;28;20442;-77
2022/06/06 08:33:07;;;;;;;5.80;2.20;;;22.10;99.90;;;;;;5027773;28;20040;-76
2022/06/06 08:36:03;;;;;;;5.95;2.45;;;22.20;99.90;;;;;;5029799;28;20037;-77
2022/06/06 08:38:53;;;;;;;2.80;2.17;;;22.40;99.40;;;;;;5042642;28;20033;-76
2022/06/06 08:41:56;;;;;;;2.30;2.10;;;22.40;98.90;;;;;;5040439;28;20112;-75
2022/06/06 08:44:36;;;;;;;3.30;2.22;;;22.60;98.70;;;;;;5043154;28;20029;-74
2022/06/06 08:47:10;;;;;;;3.42;1.77;;;22.80;98.70;;;;;;5028037;28;20032;-77
2022/06/06 08:53:07;;;;;;;3.15;1.95;;;23.00;97.80;;;;;;5028946;28;20045;-75
2022/06/06 08:56:10;;;;;;;3.33;2.03;;;23.10;97.70;;;;;;5029199;28;20037;-75
2022/06/06 08:58:51;;;;;;;3.33;2.17;;;23.20;97.50;;;;;;5026079;28;20033;-75
2022/06/06 09:01:54;;;;;;;4.90;2.00;;;23.20;97.40;;;;;;5046685;28;20033;-76
2022/06/06 09:04:50;;;;;;;3.70;2.28;;;23.20;97.20;;;;;;5022837;28;20414;-76
2022/06/06 09:07:53;;;;;;;2.58;2.10;;;23.10;97.30;;;;;;5046872;28;20537;-76
2022/06/06 09:10:44;;;;;;;4.57;2.08;;;23.10;96.70;;;;;;5027925;28;20042;-75
2022/06/06 09:13:48;;;;;;;5.82;2.30;;;23.10;96.90;;;;;;5044080;28;20013;-74
2022/06/06 09:16:51;;;;;;;3.33;1.92;;;23.30;96.20;;;;;;5026429;28;20025;-76
2022/06/06 09:20:03;;;;;;;2.97;2.05;;;23.40;95.50;;;;;;5024787;28;20040;-75
2022/06/06 09:23:13;;;;;;;4.03;1.90;;;23.50;94.60;;;;;;5016677;28;20055;-75
2022/06/06 09:25:55;;;;;;;1.80;1.58;;;23.70;93.20;;;;;;5023592;28;20042;-75
2022/06/06 09:29:03;;;;;;;4.93;2.17;;;23.70;92.50;;;;;;5027037;28;20046;-75
2022/06/06 09:31:46;;;;;;;3.63;1.73;;;23.90;92.20;;;;;;5027449;28;20029;-76
2022/06/06 09:34:43;;;;;;;2.40;1.88;;;23.90;91.50;;;;;;5042103;28;20029;-75
2022/06/06 09:37:11;;;;;;;3.17;1.63;;;23.80;91.80;;;;;;5023063;28;20596;-77
2022/06/06 09:39:56;;;;;;;2.90;1.67;;;23.70;90.90;;;;;;5027177;28;20026;-76
2022/06/06 09:42:40;;;;;;;3.40;1.80;;;23.70;90.30;;;;;;5029604;28;20025;-76
2022/06/06 09:45:23;;;;;;;2.35;1.55;;;23.60;90.50;;;;;;5023958;28;20070;-76
2022/06/06 09:48:06;;;;;;;3.78;2.25;;;23.50;88.50;;;;;;5028036;28;20021;-77
2022/06/06 09:50:37;;;;;;;2.10;1.73;;;23.40;88.60;;;;;;5046645;28;20040;-75
2022/06/06 09:59:01;;;;;;;2.80;1.60;;;23.60;88.40;;;;;;5035545;28;20032;-77
2022/06/06 10:00:10;;;;;;;1.75;1.50;;;23.60;89.30;;;;;;5024863;28;20049;-76
2022/06/06 10:02:45;;;;;;;4.38;1.77;;;23.60;89.20;;;;;;5051709;28;20422;-77
2022/06/06 10:05:34;;;;;;;4.07;1.40;;;23.70;90.10;;;;;;5045029;28;20029;-76
2022/06/06 10:08:26;;;;;;;3.55;1.70;;;23.70;88.20;;;;;;5018022;28;20076;-77
2022/06/06 10:11:29;;;;;;;7.07;1.90;;;23.70;88.70;;;;;;5030242;28;20021;-78
2022/06/06 10:14:05;;;;;;;4.75;1.73;;;23.70;88.90;;;;;;5030066;28;20055;-76
2022/06/06 10:16:42;;;;;;;3.33;1.52;;;23.80;88.80;;;;;;5029461;28;20486;-78
2022/06/06 10:19:12;;;;;;;1.80;1.35;;;23.90;89.00;;;;;;5018911;28;20034;-77
2022/06/06 10:22:15;;;;;;;1.98;1.65;;;23.90;88.40;;;;;;5026515;28;20025;-75
2022/06/06 10:24:55;;;;;;;3.22;2.08;;;24.10;87.90;;;;;;5016779;28;20037;-76
2022/06/06 10:27:23;;;;;;;2.78;1.83;;;24.20;88.60;;;;;;5036291;28;20080;-76
2022/06/06 10:30:28;;;;;;;3.47;2.28;;;24.30;88.40;;;;;;5029074;28;20036;-77
2022/06/06 10:33:18;;;;;;;2.47;1.95;;;24.30;87.40;;;;;;5041633;28;20524;-77
2022/06/06 10:35:49;;;;;;;5.07;2.15;;;24.30;88.50;;;;;;5027285;28;20041;-72
2022/06/06 10:38:50;;;;;;;2.20;1.92;;;24.30;89.60;;;;;;5027718;28;20029;-71
2022/06/06 10:41:53;;;;;;;8.50;1.55;;;24.30;86.20;;;;;;5024731;28;20037;-73
2022/06/06 10:44:44;;;;;;;2.17;1.20;;;24.10;84.30;;;;;;5025335;28;20037;-73
2022/06/06 10:47:31;;;;;;;5.07;2.00;;;24.00;83.00;;;;;;5024948;28;20095;-72
2022/06/06 10:50:06;;;;;;;1.70;1.27;;;23.80;83.80;;;;;;5027381;28;20046;-73
2022/06/06 10:53:25;;;;;;;3.10;1.25;;;23.70;83.60;;;;;;5024326;28;20487;-73
2022/06/06 10:56:02;;;;;;;3.60;1.58;;;23.60;82.90;;;;;;4973465;28;20566;-73
2022/06/06 10:59:05;;;;;;;2.83;1.30;;;23.70;83.40;;;;;;5023071;28;20565;-73
2022/06/06 11:01:58;;;;;;;3.78;1.88;;;23.60;82.80;;;;;;5018207;28;20492;-70
2022/06/06 11:05:05;;;;;;;5.47;2.15;;;23.60;83.60;;;;;;5027237;28;20520;-74
2022/06/06 11:07:57;;;;;;;3.20;2.00;;;23.60;84.00;;;;;;5027498;28;20375;-72
2022/06/06 11:10:40;;;;;;;3.15;1.77;;;23.60;84.20;;;;;;5022074;28;20079;-71
2022/06/06 11:13:29;;;;;;;2.83;2.03;;;23.70;84.80;;;;;;5019391;28;20471;-71
2022/06/06 11:16:22;;;;;;;4.25;1.70;;;23.70;84.30;;;;;;5018807;28;20063;-71
2022/06/06 11:19:35;;;;;;;2.40;1.80;;;23.60;84.20;;;;;;5019297;28;20037;-72
2022/06/06 11:22:25;;;;;;;3.65;1.98;;;23.70;84.70;;;;;;5021401;28;20037;-70
2022/06/06 11:25:06;;;;;;;5.72;1.92;;;23.60;84.80;;;;;;5025077;28;20021;-71
2022/06/06 11:27:41;;;;;;;3.50;2.10;;;23.60;85.00;;;;;;5017254;28;20103;-71
2022/06/06 11:30:06;;;;;;;3.60;2.08;;;23.70;85.40;;;;;;5025371;28;20061;-73
2022/06/06 11:33:17;;;;;;;3.38;1.80;;;23.70;84.40;;;;;;5027334;28;20637;-70
2022/06/06 11:35:48;;;;;;;4.28;2.08;;;23.60;85.00;;;;;;5013049;28;20075;-70
2022/06/06 11:38:32;;;;;;;2.72;1.60;;;23.60;85.60;;;;;;5020499;28;20053;-69
2022/06/06 11:41:14;;;;;;;5.18;1.77;;;23.70;84.60;;;;;;4966385;28;20133;-71
2022/06/06 11:44:36;;;;;;;2.92;1.48;;;23.80;84.90;;;;;;4970748;28;20396;-71
2022/06/06 11:47:39;;;;;;;10.65;2.03;;;23.80;85.40;;;;;;4957422;28;20023;-70
2022/06/06 11:50:26;;;;;;;3.60;1.67;;;24.00;85.80;;;;;;4977905;28;20034;-71
2022/06/06 11:53:28;;;;;;;3.38;1.58;;;24.00;85.50;;;;;;4964796;28;20035;-70
2022/06/06 11:56:00;;;;;;;3.72;1.88;;;24.00;84.10;;;;;;4973721;28;20942;-71
2022/06/06 11:58:41;;;;;;;3.78;1.60;;;24.10;84.40;;;;;;4950676;28;23556;-72
2022/06/06 12:01:31;;;;;;;4.25;1.73;;;24.10;82.80;;;;;;4961131;28;20038;-71
2022/06/06 12:04:09;;;;;;;2.28;1.50;;;24.20;81.50;;;;;;4962656;28;20051;-70
2022/06/06 12:06:55;;;;;;;3.00;1.75;;;24.30;80.40;;;;;;4966649;28;20038;-71
2022/06/06 12:09:32;;;;;;;3.65;1.88;;;24.50;78.50;;;;;;4967545;28;20023;-70
2022/06/06 12:12:00;;;;;;;3.20;1.30;;;24.70;78.50;;;;;;4952891;28;20373;-76
2022/06/06 12:14:47;;;;;;;2.85;1.30;;;24.80;77.80;;;;;;4954574;28;20027;-74
2022/06/06 12:17:38;;;;;;;2.38;1.77;;;24.90;76.50;;;;;;4956046;28;20045;-74
2022/06/06 12:20:25;;;;;;;2.65;1.15;;;25.00;76.60;;;;;;4962211;28;20512;-72
2022/06/06 12:23:09;;;;;;;2.70;1.55;;;25.10;76.80;;;;;;4962414;28;21657;-73
2022/06/06 12:25:51;;;;;;;2.42;1.42;;;25.10;77.30;;;;;;4965324;28;20157;-74
2022/06/06 12:28:20;;;;;;;2.45;1.55;;;25.00;76.10;;;;;;4966159;28;20031;-74
2022/06/06 12:31:13;;;;;;;2.55;1.38;;;25.00;75.70;;;;;;4961513;28;20019;-74
2022/06/06 12:33:43;;;;;;;2.00;1.40;;;25.10;74.30;;;;;;4967978;28;20502;-74
2022/06/06 12:36:18;;;;;;;4.88;1.90;;;25.00;74.90;;;;;;4962851;28;20168;-74
2022/06/06 12:39:06;;;;;;;2.78;1.55;;;24.90;74.90;;;;;;4962287;28;20038;-73
2022/06/06 12:41:37;;;;;;;3.38;1.50;;;24.90;75.00;;;;;;4970818;28;20024;-74
2022/06/06 12:44:27;;;;;;;2.58;1.52;;;24.90;76.00;;;;;;4965215;28;20043;-74
2022/06/06 12:47:20;;;;;;;2.72;1.70;;;24.90;76.00;;;;;;4966562;28;20416;-75
2022/06/06 12:49:55;;;;;;;4.25;1.77;;;24.90;75.50;;;;;;4961893;28;20035;-74
2022/06/06 12:52:40;;;;;;;5.75;2.05;;;25.00;76.00;;;;;;4970136;28;20023;-76
2022/06/06 12:56:01;;;;;;;4.05;1.90;;;25.20;75.10;;;;;;4966472;28;20384;-75
2022/06/06 12:58:40;;;;;;;3.38;1.77;;;25.20;74.00;;;;;;4946782;28;20076;-75
2022/06/06 13:04:17;;;;;;;2.60;1.02;;;25.20;73.80;;;;;;4966343;28;20172;-74
2022/06/06 13:06:52;;;;;;;;;;;25.10;73.70;;;;;;4964198;28;20035;-74
2022/06/06 13:09:32;;;;;;;2.95;1.42;;;25.10;73.20;;;;;;4973308;28;20358;-75
2022/06/06 13:12:25;;;;;;;1.38;1.02;;;25.00;73.50;;;;;;4973049;28;20164;-75
2022/06/06 13:15:02;;;;;;;1.83;1.35;;;25.00;73.40;;;;;;4965959;28;20034;-76
2022/06/06 13:17:33;;;;;;;2.95;1.60;;;25.20;73.30;;;;;;4967941;28;20492;-75
2022/06/06 13:20:36;;;;;;;2.05;1.52;;;25.40;73.40;;;;;;4969400;28;20506;-74
2022/06/06 13:23:27;;;;;;;4.70;1.80;;;25.60;72.80;;;;;;4965374;28;20033;-74
2022/06/06 13:26:11;;;;;;;3.38;1.30;;;25.50;71.80;;;;;;4969002;28;20542;-74
2022/06/06 13:28:50;;;;;;;1.75;1.48;;;25.50;72.00;;;;;;4973059;28;20033;-74
2022/06/06 13:31:19;;;;;;;2.80;1.50;;;25.40;70.90;;;;;;4957813;28;20038;-74
2022/06/06 13:33:50;;;;;;;1.88;1.20;;;25.40;70.90;;;;;;4978851;28;20033;-74
2022/06/06 13:36:37;;;;;;;4.03;1.30;;;25.30;70.90;;;;;;4967183;28;20102;-73
2022/06/06 13:39:20;;;;;;;4.80;1.65;;;25.40;71.10;;;;;;4984072;28;20054;-72
2022/06/06 13:41:49;;;;;;;2.72;1.35;;;25.50;71.80;;;;;;4963675;28;20042;-73
2022/06/06 13:44:34;;;;;;;3.40;1.77;;;25.60;70.40;;;;;;4967104;28;20610;-73
2022/06/06 13:47:28;;;;;;;4.30;1.83;;;25.70;69.10;;;;;;4964928;28;20480;-73
2022/06/06 13:50:17;;;;;;;2.00;1.15;;;25.80;68.30;;;;;;4969254;28;20026;-75
2022/06/06 13:53:02;;;;;;;2.20;1.23;;;25.90;68.10;;;;;;4968834;28;20039;-74
2022/06/06 13:55:31;;;;;;;2.63;1.40;;;25.90;67.70;;;;;;4953414;28;20064;-74
2022/06/06 13:58:18;;;;;;;3.70;1.70;;;25.90;67.80;;;;;;4966248;28;20038;-74
2022/06/06 14:01:13;;;;;;;3.15;1.30;;;25.90;67.70;;;;;;4963165;28;20109;-74
2022/06/06 14:04:04;;;;;;;2.17;1.35;;;25.90;67.20;;;;;;4964578;28;20030;-74
2022/06/06 14:06:44;;;;;;;3.45;1.42;;;26.00;67.40;;;;;;4956099;28;20030;-74
2022/06/06 14:09:16;;;;;;;3.50;1.55;;;26.00;67.10;;;;;;4955064;28;20047;-72
2022/06/06 14:12:03;;;;;;;1.70;1.30;;;26.10;66.60;;;;;;4952635;28;20369;-75
2022/06/06 14:14:32;;;;;;;2.97;1.75;;;26.00;66.10;;;;;;4963651;28;20035;-74
2022/06/06 14:17:04;;;;;;;3.20;1.50;;;26.10;66.40;;;;;;4967278;28;20029;-74
2022/06/06 14:20:12;;;;;;;4.40;2.05;;;26.10;66.70;;;;;;4966636;28;20031;-76
2022/06/06 14:22:39;;;;;;;10.43;2.28;;;26.20;66.60;;;;;;4969645;28;20026;-75
2022/06/06 14:25:07;;;;;;;2.45;1.70;;;26.30;66.60;;;;;;4970309;28;20050;-74
2022/06/06 14:27:34;;;;;;;3.95;1.85;;;26.30;66.80;;;;;;4968206;28;20026;-75
2022/06/06 14:30:11;;;;;;;2.42;1.40;;;26.30;66.40;;;;;;4971661;28;20035;-75
2022/06/06 14:32:45;;;;;;;2.20;1.42;;;26.10;65.60;;;;;;4961847;28;20031;-75
2022/06/06 14:35:16;;;;;;;2.45;1.42;;;26.10;66.10;;;;;;4965985;28;20086;-75